Portada
METAR-TAF:

METAR-TAF

Aeropuertos :

Siirt, Turquía

latitud: 37-58-41N, longitud: 41-50-21E, altitud: 610 m

METAR: falta

Hora: 02:15 (23:15 UTC)

Pronóstico

El informe se hizo hace 9 horas y 35 minutos, a las 13:40 UTC
Pronóstico válido del 25 a las 15 UTC al 25 a las 24 UTC
Viento 2 kt con dirección variable
Visibilidad 10 km o más
Nubes dispersas a una altura de 4000 ft
Cielo nuboso a una altura de 10000 ft
Temporalmente
del 25 a las 15 UTC al 25 a las 18 UTC
Viento 15 kt con dirección variable con ráfagas de 25 kt
Escasas nubes a una altura de 2500 ft, Cumulonimbus.
Cielo nuboso a una altura de 3500 ft
tormenta, lluvia ligera
Evolucionando progresivamente
del 25 a las 18 UTC al 25 a las 20 UTC
Visibilidad 10 km o más
sin nubes por debajo de 1500 m y sin presencia de cumulonimbus.

TAF: LTCL 251340Z 2515/2524 VRB02KT 9999 SCT040 BKN100 TEMPO 2515/2518 VRB15G25KT -TSRA FEW025CB BKN035 BECMG 2518/2520 CAVOK

Observaciones y pronósticos meteorológicos de más de 4000 aeropuertos (mensajes METAR y TAF).

Los puntos amarillos y rojos representan las estaciones disponibles.

Ponga el ratón en el punto deseado para ver el nombre de la estación.

Haga clic para ver las observaciones y los pronósticos meteorológicos.

Para cambiar el mapa : haga clic en los botones verdes con una cruz de color negro para hacer un zoom, en el botón verde con un guión para alejar o en las flechas verdes para mapas adyacentes.


METAR-TAF: